This is the latest recevied weather packets stored in our database for station/object DL3NBY. If no packets are shown the sender has not sent any weather packets the latest 10 day(s).
| Time | Temp. | Humidity | Pressure | Rain* | Wind** | Luminosity | Snow |
|---|---|---|---|---|---|---|---|
| 1777880428 | 17.78° C | 62% | 1013.6 hPa | 0 mm | - | - | - |
| 1777876869 | 16.11° C | 73% | 1013.4 hPa | 0 mm | - | - | - |
| 1777873853 | 13.33° C | 84% | 1013.4 hPa | 0 mm | - | - | - |
| 1777872043 | 11.11° C | 90% | 1013.2 hPa | 0 mm | - | - | - |
| 1777871440 | 11.11° C | 93% | 1013.1 hPa | 0 mm | - | - | - |
| 1777865469 | 10.56° C | 95% | 1013 hPa | 0 mm | - | - | - |
| 1777864866 | 10.56° C | 94% | 1013 hPa | 0 mm | - | - | - |
| 1777861247 | 11.11° C | 94% | 1012.9 hPa | 0 mm | - | - | - |
| 1777852260 | 13.33° C | 83% | 1012.9 hPa | 0 mm | - | - | - |
| 1777851094 | 16.11° C | 71% | 1012.8 hPa | 0 mm | - | - | - |
| 1777845042 | 12.22° C | 93% | 1012.5 hPa | 0 mm | - | - | - |
| 1777843836 | 11.67° C | 95% | 1012.1 hPa | 0 mm | - | - | - |
| 1777842669 | 11.67° C | 93% | 1012 hPa | 0 mm | - | - | - |
| 1777841463 | 11.67° C | 93% | 1011.7 hPa | 0 mm | - | - | - |
| 1777838443 | 12.78° C | 90% | 1011.3 hPa | 0 mm | - | - | - |
| 1777834862 | 14.44° C | 84% | 1011 hPa | 0 mm | - | - | - |
| 1777834218 | 15° C | 82% | 1010.9 hPa | 0 mm | - | - | - |
| 1777831886 | 17.22° C | 79% | 1010.6 hPa | 0 mm | - | - | - |
| 1777828850 | 20.56° C | 72% | 1010.6 hPa | 0 mm | - | - | - |
| 1777825229 | 22.78° C | 49% | 1010.8 hPa | 0 mm | - | - | - |
| 1777820464 | 23.89° C | 44% | 1011.1 hPa | 0 mm | - | - | - |
| 1777819881 | 24.44° C | 45% | 1011.1 hPa | 0 mm | - | - | - |
| 1777819258 | 24.44° C | 42% | 1011.2 hPa | 0 mm | - | - | - |
| 1777818655 | 24.44° C | 44% | 1011.3 hPa | 0 mm | - | - | - |
| 1777817448 | 25° C | 42% | 1011.4 hPa | 0 mm | - | - | - |
* Rain latest hour (hover to see other rain measurements)
** Current wind speed in m/s (hover to see current wind gust speed)